createdAt,value
2023-04-10T00:00:38.476Z,10.3
2023-04-10T00:01:45.521Z,10.3
2023-04-10T00:02:52.981Z,10.2
2023-04-10T00:04:00.144Z,10.2
2023-04-10T00:05:06.488Z,10.2
2023-04-10T00:06:13.373Z,10.2
2023-04-10T00:07:20.481Z,10.2
2023-04-10T00:08:27.633Z,10.1
2023-04-10T00:09:34.700Z,10.1
2023-04-10T00:10:41.292Z,10.2
2023-04-10T00:11:48.519Z,10.1
2023-04-10T00:12:55.560Z,10.1
2023-04-10T00:14:02.571Z,10.1
2023-04-10T00:15:09.755Z,10
2023-04-10T00:16:16.319Z,10
2023-04-10T00:17:23.525Z,10
2023-04-10T00:18:30.509Z,10
2023-04-10T00:19:38.162Z,10
2023-04-10T00:20:44.751Z,10
2023-04-10T00:21:51.292Z,10
2023-04-10T00:21:51.360Z,10
2023-04-10T00:22:58.478Z,10
2023-04-10T00:24:05.620Z,10
2023-04-10T00:25:12.636Z,10
2023-04-10T00:26:19.715Z,10
2023-04-10T00:27:26.375Z,10
2023-04-10T00:28:33.368Z,9.9
2023-04-10T00:30:47.667Z,9.9
2023-04-10T00:31:54.207Z,9.9
2023-04-10T00:33:01.340Z,9.9
2023-04-10T00:34:08.418Z,9.8
2023-04-10T00:35:14.991Z,9.8
2023-04-10T00:35:15.584Z,9.8
2023-04-10T00:36:22.650Z,9.7
2023-04-10T00:37:29.833Z,9.7
2023-04-10T00:38:36.348Z,9.6
2023-04-10T00:39:43.438Z,9.6
2023-04-10T00:40:50.512Z,9.6
2023-04-10T00:41:57.638Z,9.7
2023-04-10T00:43:04.249Z,9.6
2023-04-10T00:43:04.741Z,9.6
2023-04-10T00:44:11.305Z,9.6
2023-04-10T00:45:18.416Z,9.6
2023-04-10T00:46:25.589Z,9.5
2023-04-10T00:47:32.702Z,9.5
2023-04-10T00:48:39.805Z,9.5
2023-04-10T00:48:39.814Z,9.5
2023-04-10T00:49:46.411Z,9.5
2023-04-10T00:50:53.441Z,9.5
2023-04-10T00:52:00.554Z,9.5
2023-04-10T00:53:07.119Z,9.5
2023-04-10T00:53:07.657Z,9.5
2023-04-10T00:54:14.823Z,9.5
2023-04-10T00:56:28.427Z,9.4
2023-04-10T00:58:42.653Z,9.4
2023-04-10T00:59:49.771Z,9.3
2023-04-10T01:02:03.185Z,9.3
2023-04-10T01:02:03.720Z,9.3
2023-04-10T01:03:10.713Z,9.3
2023-04-10T01:05:24.831Z,9.3
2023-04-10T01:06:30.825Z,9.3
2023-04-10T01:06:31.339Z,9.3
2023-04-10T01:07:38.494Z,9.3
2023-04-10T01:08:45.605Z,9.3
2023-04-10T01:10:59.297Z,9.2
2023-04-10T01:10:59.315Z,9.2
2023-04-10T01:12:06.394Z,9.2
2023-04-10T01:13:12.940Z,9.2
2023-04-10T01:14:20.533Z,9.2
2023-04-10T01:15:27.138Z,9.2
2023-04-10T01:15:27.651Z,9.2
2023-04-10T01:16:34.266Z,9.2
2023-04-10T01:17:41.405Z,9.1
2023-04-10T01:18:48.497Z,9.1
2023-04-10T01:19:55.059Z,9.1
2023-04-10T01:19:55.547Z,9.1
2023-04-10T01:21:02.649Z,9.1
2023-04-10T01:22:09.266Z,9.1
2023-04-10T01:23:15.880Z,9.1
2023-04-10T01:23:16.385Z,9.1
2023-04-10T01:24:23.458Z,9.1
2023-04-10T01:25:30.539Z,9
2023-04-10T01:26:37.279Z,9
2023-04-10T01:26:37.632Z,9
2023-04-10T01:27:44.251Z,9
2023-04-10T01:28:51.415Z,8.9
2023-04-10T01:28:51.442Z,8.9
2023-04-10T01:29:58.516Z,8.9
2023-04-10T01:31:05.635Z,8.9
2023-04-10T01:32:12.697Z,9
2023-04-10T01:33:19.807Z,9
2023-04-10T01:33:19.934Z,9
2023-04-10T01:34:26.439Z,8.9
2023-04-10T01:35:33.588Z,8.9
2023-04-10T01:37:47.727Z,8.8
2023-04-10T01:37:47.745Z,8.8
2023-04-10T01:44:29.382Z,8.8
2023-04-10T01:56:46.441Z,8.7
2023-04-10T02:13:30.962Z,8.5
2023-04-10T02:13:31.391Z,8.5
2023-04-10T02:15:45.140Z,8.5
2023-04-10T02:24:41.460Z,8.5
2023-04-10T02:25:48.557Z,8.5
2023-04-10T02:26:56.203Z,8.6
2023-04-10T02:33:37.290Z,8.6
2023-04-10T02:34:44.318Z,8.6
2023-04-10T02:43:40.126Z,8.7
2023-04-10T02:50:22.333Z,8.6
2023-04-10T02:51:29.401Z,8.6
2023-04-10T02:52:36.501Z,8.6
2023-04-10T02:53:43.588Z,8.6
2023-04-10T02:54:50.139Z,8.6
2023-04-10T02:55:57.327Z,8.6
2023-04-10T02:57:04.369Z,8.6
2023-04-10T02:59:18.611Z,8.7
2023-04-10T03:02:39.653Z,8.7
2023-04-10T03:03:46.082Z,8.7
2023-04-10T03:04:53.813Z,8.7
2023-04-10T03:06:00.384Z,8.7
2023-04-10T03:09:20.952Z,8.7
2023-04-10T03:10:28.139Z,8.7
2023-04-10T03:11:35.219Z,8.7
2023-04-10T03:12:42.294Z,8.7
2023-04-10T03:13:49.410Z,8.7
2023-04-10T03:14:56.561Z,8.7
2023-04-10T03:16:03.703Z,8.6
2023-04-10T03:18:17.337Z,8.6
2023-04-10T03:19:23.928Z,8.6
2023-04-10T03:19:24.391Z,8.6
2023-04-10T03:20:31.550Z,8.6
2023-04-10T03:21:38.625Z,8.6
2023-04-10T03:22:45.251Z,8.6
2023-04-10T03:23:52.558Z,8.6
2023-04-10T03:28:20.926Z,8.6
2023-04-10T03:29:27.393Z,8.6
2023-04-10T03:29:27.406Z,8.6
2023-04-10T03:30:33.940Z,8.6
2023-04-10T03:31:44.212Z,8.6
2023-04-10T03:32:48.722Z,8.6
2023-04-10T03:33:55.609Z,8.6
2023-04-10T03:35:02.354Z,8.6
2023-04-10T03:39:30.245Z,8.6
2023-04-10T03:40:37.351Z,8.6
2023-04-10T03:43:58.196Z,8.6
2023-04-10T04:08:32.452Z,8.5
2023-04-10T04:13:00.276Z,8.5
2023-04-10T04:14:07.415Z,8.5
2023-04-10T04:15:14.463Z,8.4
2023-04-10T04:16:21.622Z,8.5
2023-04-10T04:17:28.197Z,8.5
2023-04-10T04:18:35.359Z,8.4
2023-04-10T04:19:42.368Z,8.4
2023-04-10T04:20:49.548Z,8.4
2023-04-10T04:21:56.608Z,8.4
2023-04-10T04:23:03.720Z,8.5
2023-04-10T04:24:10.386Z,8.4
2023-04-10T04:25:17.409Z,8.5
2023-04-10T04:26:24.461Z,8.4
2023-04-10T04:27:31.658Z,8.4
2023-04-10T04:28:38.829Z,8.4
2023-04-10T04:30:52.391Z,8.4
2023-04-10T04:31:59.529Z,8.4
2023-04-10T04:33:06.689Z,8.4
2023-04-10T04:34:13.731Z,8.4
2023-04-10T04:35:20.292Z,8.4
2023-04-10T04:36:27.440Z,8.3
2023-04-10T04:37:34.542Z,8.3
2023-04-10T04:38:41.643Z,8.3
2023-04-10T04:42:01.891Z,8.3
2023-04-10T04:43:09.058Z,8.3
2023-04-10T04:44:16.112Z,8.3
2023-04-10T04:46:30.378Z,8.3
2023-04-10T04:47:37.472Z,8.3
2023-04-10T04:48:44.569Z,8.2
2023-04-10T04:49:51.624Z,8.2
2023-04-10T04:50:58.783Z,8.3
2023-04-10T04:52:05.351Z,8.2
2023-04-10T05:01:01.688Z,8.3
2023-04-10T05:02:08.302Z,8.3
2023-04-10T05:03:15.533Z,8.2
2023-04-10T05:04:22.776Z,8.2
2023-04-10T05:05:29.590Z,8.2
2023-04-10T05:06:36.628Z,8.2
2023-04-10T05:07:43.214Z,8.2
2023-04-10T05:08:50.324Z,8.2
2023-04-10T05:09:57.461Z,8.3
2023-04-10T05:11:04.154Z,8.2
2023-04-10T05:12:11.688Z,8.3
2023-04-10T05:13:18.300Z,8.2
2023-04-10T05:14:25.386Z,8.2
2023-04-10T05:15:32.499Z,8.2
2023-04-10T05:17:46.267Z,8.2
2023-04-10T05:17:46.707Z,8.2
2023-04-10T05:18:53.612Z,8.2
2023-04-10T05:20:00.152Z,8.2
2023-04-10T05:20:00.429Z,8.2
2023-04-10T05:22:15.183Z,8.2
2023-04-10T05:25:35.448Z,8.2
2023-04-10T05:26:42.475Z,8.2
2023-04-10T05:28:56.529Z,8.2
2023-04-10T05:30:03.258Z,8.2
2023-04-10T05:32:17.065Z,8.2
2023-04-10T05:33:24.047Z,8.2
2023-04-10T05:33:24.566Z,8.2
2023-04-10T06:33:42.553Z,7.7
2023-04-10T06:58:16.294Z,7.9
2023-04-10T07:01:37.269Z,7.9
2023-04-10T07:04:58.521Z,7.9
2023-04-10T07:06:05.506Z,7.9
2023-04-10T07:10:33.482Z,7.9
2023-04-10T07:13:54.173Z,7.9
2023-04-10T07:16:08.479Z,8
2023-04-10T07:19:29.766Z,8.1
2023-04-10T07:44:03.485Z,8.2
2023-04-10T07:45:10.609Z,8.2
2023-04-10T07:48:31.370Z,8.2
2023-04-10T07:51:52.225Z,8.3
2023-04-10T07:52:59.254Z,8.3
2023-04-10T07:54:06.368Z,8.3
2023-04-10T07:59:41.394Z,8.4
2023-04-10T08:03:02.505Z,8.4
2023-04-10T08:03:03.063Z,8.4
2023-04-10T08:06:23.470Z,8.4
2023-04-10T08:07:30.574Z,8.4
2023-04-10T08:18:40.098Z,8.7
2023-04-10T08:19:47.801Z,8.7
2023-04-10T08:25:22.550Z,8.8
2023-04-10T08:26:28.793Z,8.8
2023-04-10T08:27:36.410Z,8.9
2023-04-10T08:30:57.909Z,8.9
2023-04-10T08:32:04.278Z,8.9
2023-04-10T08:33:11.390Z,9
2023-04-10T08:34:18.551Z,9
2023-04-10T08:35:25.593Z,9
2023-04-10T08:36:32.809Z,9.1
2023-04-10T08:37:39.336Z,9.1
2023-04-10T08:37:39.381Z,9.1
2023-04-10T08:39:53.501Z,9.2
2023-04-10T08:41:00.118Z,9.3
2023-04-10T08:44:20.894Z,9.6
2023-04-10T08:46:35.450Z,10
2023-04-10T08:48:49.318Z,10.2
2023-04-10T08:49:56.506Z,10.3
2023-04-10T08:51:03.512Z,10.3
2023-04-10T08:52:10.617Z,10.3
2023-04-10T08:53:17.239Z,10.4
2023-04-10T08:54:24.318Z,10.4
2023-04-10T08:56:38.558Z,10.5
2023-04-10T08:57:50.929Z,10.6
2023-04-10T08:58:52.229Z,10.7
2023-04-10T08:59:59.575Z,10.7
2023-04-10T09:01:05.940Z,10.8
2023-04-10T09:02:13.732Z,10.8
2023-04-10T09:03:20.819Z,10.8
2023-04-10T09:04:27.975Z,10.8
2023-04-10T09:05:34.342Z,10.8
2023-04-10T09:06:40.946Z,10.9
2023-04-10T09:06:41.473Z,10.9
2023-04-10T09:07:48.089Z,10.9
2023-04-10T09:08:55.218Z,10.9
2023-04-10T09:11:09.392Z,10.8
2023-04-10T09:12:16.552Z,10.7
2023-04-10T09:13:23.594Z,10.6
2023-04-10T09:14:30.750Z,10.5
2023-04-10T09:15:37.325Z,10.4
2023-04-10T09:16:44.351Z,10.3
2023-04-10T09:21:12.299Z,9.7
2023-04-10T09:22:18.908Z,9.6
2023-04-10T09:22:19.405Z,9.6
2023-04-10T09:24:34.745Z,9.3
2023-04-10T09:25:40.688Z,9.3
2023-04-10T09:26:47.302Z,9.3
2023-04-10T09:27:54.396Z,9.3
2023-04-10T09:30:08.633Z,9.2
2023-04-10T09:59:10.342Z,8.3
2023-04-10T10:40:29.063Z,9
2023-04-10T10:43:50.315Z,9.1
2023-04-10T10:44:58.280Z,9.1
2023-04-10T10:44:58.378Z,9.1
2023-04-10T10:46:04.551Z,9.1
2023-04-10T10:48:18.696Z,9.1
2023-04-10T10:49:25.389Z,9.1
2023-04-10T10:50:32.373Z,9.1
2023-04-10T10:51:39.541Z,9.1
2023-04-10T10:52:46.644Z,9.2
2023-04-10T11:01:44.525Z,9.3
2023-04-10T11:02:49.668Z,9.3
2023-04-10T11:03:56.779Z,9.4
2023-04-10T11:05:03.269Z,9.4
2023-04-10T11:05:03.725Z,9.4
2023-04-10T11:06:10.305Z,9.5
2023-04-10T11:07:17.452Z,9.5
2023-04-10T11:08:24.515Z,9.5
2023-04-10T11:09:31.112Z,9.6
2023-04-10T12:20:59.184Z,9.3
2023-04-10T12:32:09.197Z,9.9
2023-04-10T12:38:51.256Z,10
2023-04-10T12:48:55.010Z,9.6
2023-04-10T13:19:02.833Z,9.2
2023-04-10T13:26:52.595Z,9.6
2023-04-10T13:28:00.119Z,9.7
2023-04-10T14:07:04.353Z,9
2023-04-10T14:23:49.358Z,9.7
2023-04-10T14:25:09.364Z,9.7
2023-04-10T14:26:03.463Z,9.7
2023-04-10T14:27:12.745Z,9.6
2023-04-10T14:28:17.966Z,9.6
2023-04-10T14:29:34.890Z,9.6
2023-04-10T14:30:31.475Z,9.5
2023-04-10T14:31:58.061Z,9.5
2023-04-10T14:32:45.633Z,9.5
2023-04-10T14:33:52.938Z,9.4
2023-04-10T14:34:59.828Z,9.3
2023-04-10T14:36:05.965Z,9.3
2023-04-10T14:36:06.609Z,9.3
2023-04-10T14:37:15.334Z,9.4
2023-04-10T14:38:20.567Z,9.4
2023-04-10T14:39:27.756Z,9.5
2023-04-10T14:40:34.340Z,9.5
2023-04-10T14:41:44.680Z,9.5
2023-04-10T14:42:48.499Z,9.5
2023-04-10T14:43:55.707Z,9.4
2023-04-10T14:45:02.706Z,9.4
2023-04-10T14:46:09.329Z,9.3
2023-04-10T14:47:16.431Z,9.3
2023-04-10T14:48:23.735Z,9.1
2023-04-10T14:49:30.607Z,9
2023-04-10T14:50:37.785Z,9
2023-04-10T14:52:50.856Z,8.9
2023-04-10T14:55:05.730Z,8.9
2023-04-10T14:56:12.210Z,8.8
2023-04-10T14:57:20.331Z,8.8
2023-04-10T14:57:20.361Z,8.8
2023-04-10T14:58:26.827Z,8.8
2023-04-10T14:59:33.564Z,8.8
2023-04-10T15:00:40.612Z,8.8
2023-04-10T15:01:47.768Z,8.8
2023-04-10T15:02:54.584Z,8.8
2023-04-10T15:04:01.442Z,8.8
2023-04-10T15:05:11.998Z,8.8
2023-04-10T15:06:25.438Z,8.8
2023-04-10T15:07:22.706Z,8.8
2023-04-10T15:08:29.343Z,8.8
2023-04-10T15:09:36.435Z,8.7
2023-04-10T15:11:50.651Z,8.6
2023-04-10T15:12:57.353Z,8.6
2023-04-10T15:14:04.383Z,8.5
2023-04-10T15:15:11.465Z,8.4
2023-04-10T15:16:18.699Z,8.4
2023-04-10T15:17:25.222Z,8.4
2023-04-10T15:18:32.234Z,8.4
2023-04-10T15:19:39.343Z,8.4
2023-04-10T15:20:46.504Z,8.4
2023-04-10T15:21:53.557Z,8.4
2023-04-10T15:23:00.674Z,8.4
2023-04-10T15:24:07.768Z,8.4
2023-04-10T15:25:14.383Z,8.3
2023-04-10T15:26:21.430Z,8.3
2023-04-10T15:27:28.564Z,8.3
2023-04-10T15:28:35.675Z,8.3
2023-04-10T15:29:42.240Z,8.3
2023-04-10T15:30:49.405Z,8.3
2023-04-10T15:31:56.469Z,8.3
2023-04-10T15:33:03.692Z,8.4
2023-04-10T15:34:10.675Z,8.4
2023-04-10T15:35:17.314Z,8.4
2023-04-10T15:36:24.374Z,8.4
2023-04-10T15:37:31.487Z,8.4
2023-04-10T15:38:38.595Z,8.3
2023-04-10T15:39:45.730Z,8.3
2023-04-10T15:40:52.296Z,8.2
2023-04-10T15:41:59.383Z,8.2
2023-04-10T15:43:06.541Z,8.2
2023-04-10T15:44:13.574Z,8.2
2023-04-10T15:45:20.647Z,8.1
2023-04-10T15:46:27.393Z,8.1
2023-04-10T15:47:34.499Z,8
2023-04-10T15:48:42.015Z,8
2023-04-10T15:49:48.592Z,7.9
2023-04-10T15:50:55.757Z,7.9
2023-04-10T15:52:02.252Z,7.8
2023-04-10T15:53:09.378Z,7.7
2023-04-10T15:54:16.513Z,7.7
2023-04-10T15:55:23.629Z,7.6
2023-04-10T15:56:30.764Z,7.6
2023-04-10T15:57:37.343Z,7.5
2023-04-10T15:58:44.431Z,7.5
2023-04-10T15:59:51.516Z,7.5
2023-04-10T16:00:58.839Z,7.5
2023-04-10T16:02:05.832Z,7.5
2023-04-10T16:03:12.448Z,7.5
2023-04-10T16:04:19.599Z,7.5
2023-04-10T16:05:26.628Z,7.4
2023-04-10T16:06:33.612Z,7.4
2023-04-10T16:07:40.753Z,7.5
2023-04-10T16:08:47.300Z,7.4
2023-04-10T16:09:54.451Z,7.4
2023-04-10T16:11:01.576Z,7.5
2023-04-10T16:12:08.584Z,7.5
2023-04-10T16:13:15.751Z,7.5
2023-04-10T16:14:22.895Z,7.5
2023-04-10T16:15:29.454Z,7.5
2023-04-10T16:16:36.588Z,7.5
2023-04-10T16:17:43.698Z,7.5
2023-04-10T16:18:50.735Z,7.5
2023-04-10T16:19:57.345Z,7.5
2023-04-10T16:21:04.490Z,7.5
2023-04-10T16:22:11.534Z,7.5
2023-04-10T16:23:18.657Z,7.5
2023-04-10T16:24:32.899Z,7.6
2023-04-10T16:25:32.330Z,7.6
2023-04-10T16:26:39.570Z,7.7
2023-04-10T16:27:46.558Z,7.7
2023-04-10T16:28:54.269Z,7.7
2023-04-10T16:30:00.715Z,7.7
2023-04-10T16:31:07.440Z,7.7
2023-04-10T16:32:14.504Z,7.7
2023-04-10T16:33:21.542Z,7.8
2023-04-10T16:34:28.771Z,7.8
2023-04-10T16:35:35.864Z,7.8
2023-04-10T16:36:42.305Z,7.8
2023-04-10T16:37:49.449Z,7.8
2023-04-10T16:38:57.135Z,7.8
2023-04-10T16:41:10.271Z,7.8
2023-04-10T16:42:17.347Z,7.8
2023-04-10T16:43:24.867Z,7.8
2023-04-10T16:44:31.560Z,7.7
2023-04-10T16:45:38.870Z,7.8
2023-04-10T16:46:45.318Z,7.8
2023-04-10T16:47:52.393Z,7.8
2023-04-10T16:48:59.460Z,7.8
2023-04-10T16:50:06.565Z,7.8
2023-04-10T16:51:13.631Z,7.8
2023-04-10T16:52:20.295Z,7.8
2023-04-10T16:53:27.385Z,7.8
2023-04-10T16:54:34.471Z,7.8
2023-04-10T16:55:41.675Z,7.7
2023-04-10T16:56:48.727Z,7.7
2023-04-10T16:57:55.775Z,7.7
2023-04-10T16:59:02.390Z,7.7
2023-04-10T17:00:09.471Z,7.7
2023-04-10T17:01:16.642Z,7.7
2023-04-10T17:02:23.828Z,7.6
2023-04-10T17:03:30.449Z,7.6
2023-04-10T17:04:37.416Z,7.5
2023-04-10T17:05:44.499Z,7.5
2023-04-10T17:06:51.610Z,7.5
2023-04-10T17:07:58.823Z,7.5
2023-04-10T17:09:05.286Z,7.6
2023-04-10T17:10:12.346Z,7.6
2023-04-10T17:11:19.685Z,7.6
2023-04-10T17:12:26.645Z,7.5
2023-04-10T17:13:33.736Z,7.5
2023-04-10T17:14:40.295Z,7.5
2023-04-10T17:15:47.460Z,7.5
2023-04-10T17:16:53.995Z,7.5
2023-04-10T17:18:01.705Z,7.5
2023-04-10T17:19:08.689Z,7.4
2023-04-10T17:20:15.868Z,7.5
2023-04-10T17:22:29.572Z,7.4
2023-04-10T17:23:36.622Z,7.4
2023-04-10T17:24:43.725Z,7.3
2023-04-10T17:25:50.347Z,7.3
2023-04-10T17:26:57.450Z,7.3
2023-04-10T17:29:11.599Z,7.3
2023-04-10T17:30:18.837Z,7.3
2023-04-10T17:32:32.473Z,7.2
2023-04-10T17:33:39.555Z,7.2
2023-04-10T17:34:46.650Z,7.1
2023-04-10T17:54:52.557Z,7.1
2023-04-10T17:55:59.554Z,7.1
2023-04-10T17:57:06.665Z,7.1
2023-04-10T17:58:13.211Z,7
2023-04-10T17:59:20.395Z,7
2023-04-10T18:00:27.475Z,7.1
2023-04-10T18:01:34.611Z,7.1
2023-04-10T18:03:48.881Z,7.1
2023-04-10T18:04:55.346Z,7.1
2023-04-10T18:06:02.510Z,7.1
2023-04-10T18:07:09.595Z,7.1
2023-04-10T18:08:16.705Z,7.1
2023-04-10T18:09:23.288Z,7.1
2023-04-10T18:12:44.637Z,7.1
2023-04-10T18:13:51.721Z,7.1
2023-04-10T18:29:29.637Z,6.7
2023-04-10T18:30:36.739Z,6.7
2023-04-10T18:31:44.792Z,6.7
2023-04-10T18:34:07.085Z,6.7
2023-04-10T18:37:18.356Z,6.6
2023-04-10T18:41:46.220Z,6.4
2023-04-10T18:42:53.339Z,6.4
2023-04-10T18:56:17.591Z,6.4
2023-04-10T18:57:24.632Z,6.4
2023-04-10T19:09:41.278Z,6.4
2023-04-10T19:11:55.496Z,6.4
2023-04-10T19:13:02.536Z,6.4
2023-04-10T19:14:09.669Z,6.5
2023-04-10T19:18:37.665Z,6.6
2023-04-10T19:19:44.663Z,6.5
2023-04-10T19:20:53.129Z,6.6
2023-04-10T19:21:58.370Z,6.6
2023-04-10T19:30:54.727Z,6.6
2023-04-10T19:32:01.272Z,6.6
2023-04-10T19:33:08.421Z,6.6
2023-04-10T19:34:15.484Z,6.6
2023-04-10T19:35:22.614Z,6.6
2023-04-10T19:36:29.714Z,6.6
2023-04-10T19:37:36.276Z,6.6
2023-04-10T19:38:43.384Z,6.6
2023-04-10T19:39:50.490Z,6.6
2023-04-10T19:40:57.610Z,6.7
2023-04-10T19:42:04.711Z,6.7
2023-04-10T19:43:11.832Z,6.7
2023-04-10T19:44:18.343Z,6.7
2023-04-10T19:45:25.587Z,6.7
2023-04-10T19:46:32.610Z,6.7
2023-04-10T19:47:39.747Z,6.7
2023-04-10T19:48:46.328Z,6.7
2023-04-10T19:49:53.422Z,6.7
2023-04-10T19:51:00.468Z,6.7
2023-04-10T19:52:07.587Z,6.7
2023-04-10T19:53:14.734Z,6.7
2023-04-10T19:54:21.300Z,6.7
2023-04-10T19:55:28.490Z,6.8
2023-04-10T19:56:35.540Z,6.7
2023-04-10T19:57:42.617Z,6.7
2023-04-10T19:58:49.743Z,6.8
2023-04-10T19:59:56.429Z,6.8
2023-04-10T20:01:03.402Z,6.7
2023-04-10T20:02:10.517Z,6.7
2023-04-10T20:03:17.792Z,6.7
2023-04-10T20:05:31.330Z,6.7
2023-04-10T20:07:45.550Z,6.7
2023-04-10T20:08:52.366Z,6.7
2023-04-10T20:08:52.901Z,6.7
2023-04-10T20:09:59.198Z,6.7
2023-04-10T20:13:20.493Z,6.7
2023-04-10T20:14:27.137Z,6.6
2023-04-10T20:15:34.804Z,6.6
2023-04-10T20:16:41.382Z,6.7
2023-04-10T20:17:48.537Z,6.7
2023-04-10T20:18:55.740Z,6.6
2023-04-10T20:20:02.654Z,6.6
2023-04-10T20:21:09.739Z,6.6
2023-04-10T20:22:16.354Z,6.6
2023-04-10T20:23:23.391Z,6.6
2023-04-10T20:24:30.581Z,6.6
2023-04-10T20:25:37.700Z,6.6
2023-04-10T20:26:44.744Z,6.6
2023-04-10T20:27:51.327Z,6.6
2023-04-10T20:28:58.148Z,6.6
2023-04-10T20:30:05.592Z,6.6
2023-04-10T20:32:19.801Z,6.5
2023-04-10T20:39:01.407Z,6.4
2023-04-10T20:41:15.547Z,6.4
2023-04-10T20:42:22.145Z,6.4
2023-04-10T20:43:29.237Z,6.4
2023-04-10T20:43:29.335Z,6.4
2023-04-10T20:44:36.394Z,6.4
2023-04-10T20:45:43.508Z,6.3
2023-04-10T20:46:50.671Z,6.3
2023-04-10T20:49:04.786Z,6.3
2023-04-10T20:50:12.863Z,6.3
2023-04-10T20:51:18.491Z,6.2
2023-04-10T20:52:25.599Z,6.1
2023-04-10T20:53:32.670Z,6.1
2023-04-10T20:54:39.786Z,6.1
2023-04-10T20:55:46.451Z,6.1
2023-04-10T20:56:53.461Z,6
2023-04-10T20:58:00.586Z,5.9
2023-04-10T20:59:07.807Z,5.9
2023-04-10T21:00:14.815Z,5.9
2023-04-10T21:01:21.387Z,5.9
2023-04-10T21:02:28.644Z,5.9
2023-04-10T21:03:35.683Z,6
2023-04-10T21:04:42.720Z,6
2023-04-10T21:05:50.020Z,6.1
2023-04-10T21:06:56.464Z,6.1
2023-04-10T21:08:03.532Z,6.1
2023-04-10T21:16:59.460Z,6.5
2023-04-10T21:18:06.485Z,6.6
2023-04-10T21:19:13.562Z,6.6
2023-04-10T21:20:20.626Z,6.6
2023-04-10T21:23:41.533Z,6.7
2023-04-10T21:24:48.711Z,6.6
2023-04-10T21:27:02.262Z,6.6
2023-04-10T21:28:09.293Z,6.5
2023-04-10T21:30:23.510Z,6.3
2023-04-10T21:31:30.698Z,6.3
2023-04-10T21:34:51.435Z,6.3
2023-04-10T21:35:58.820Z,6.3
2023-04-10T21:37:05.637Z,6.2
2023-04-10T21:39:19.427Z,6.3
2023-04-10T21:39:19.434Z,6.3
2023-04-10T21:40:26.421Z,6.2
2023-04-10T21:42:40.630Z,6.2
2023-04-10T21:43:47.769Z,6.2
2023-04-10T21:44:54.355Z,6.2
2023-04-10T21:46:02.938Z,6.3
2023-04-10T21:47:08.567Z,6.2
2023-04-10T21:49:22.779Z,6.2
2023-04-10T21:50:29.455Z,6.2
2023-04-10T21:51:36.601Z,6.3
2023-04-10T21:53:50.684Z,6.3
2023-04-10T21:54:57.818Z,6.3
2023-04-10T21:56:04.401Z,6.3
2023-04-10T21:57:11.461Z,6.4
2023-04-10T21:58:18.577Z,6.4
2023-04-10T21:59:25.702Z,6.4
2023-04-10T22:00:32.748Z,6.4
2023-04-10T22:01:39.437Z,6.4
2023-04-10T22:02:46.607Z,6.4
2023-04-10T22:03:53.691Z,6.4
2023-04-10T22:05:00.650Z,6.4
2023-04-10T22:07:14.450Z,6.4
2023-04-10T22:08:21.464Z,6.4
2023-04-10T22:09:28.583Z,6.4
2023-04-10T22:10:35.160Z,6.4
2023-04-10T22:11:44.905Z,6.4
2023-04-10T22:12:49.663Z,6.4
2023-04-10T22:13:58.246Z,6.4
2023-04-10T22:15:03.565Z,6.4
2023-04-10T22:16:10.702Z,6.4
2023-04-10T22:17:17.334Z,6.4
2023-04-10T22:18:24.518Z,6.4
2023-04-10T22:19:31.447Z,6.4
2023-04-10T22:20:38.585Z,6.4
2023-04-10T22:21:45.737Z,6.4
2023-04-10T22:22:52.244Z,6.4
2023-04-10T22:23:59.448Z,6.4
2023-04-10T22:25:06.509Z,6.4
2023-04-10T22:26:13.715Z,6.4
2023-04-10T22:27:20.719Z,6.4
2023-04-10T22:28:27.347Z,6.4
2023-04-10T22:29:34.393Z,6.5
2023-04-10T22:30:41.498Z,6.5
2023-04-10T22:31:48.668Z,6.4
2023-04-10T22:32:55.771Z,6.4
2023-04-10T22:34:02.328Z,6.5
2023-04-10T22:35:09.483Z,6.5
2023-04-10T22:37:23.655Z,6.4
2023-04-10T22:38:30.753Z,6.5
2023-04-10T22:39:37.355Z,6.5
2023-04-10T22:40:44.419Z,6.5
2023-04-10T22:41:51.489Z,6.5
2023-04-10T22:42:58.678Z,6.5
2023-04-10T22:44:05.766Z,6.5
2023-04-10T22:45:12.322Z,6.5
2023-04-10T22:46:19.525Z,6.5
2023-04-10T22:47:26.568Z,6.5
2023-04-10T22:48:33.627Z,6.5
2023-04-10T22:49:40.702Z,6.4
2023-04-10T22:50:47.343Z,6.5
2023-04-10T22:51:54.435Z,6.5
2023-04-10T22:53:01.519Z,6.5
2023-04-10T22:54:08.651Z,6.4
2023-04-10T22:55:15.735Z,6.4
2023-04-10T22:56:22.397Z,6.4
2023-04-10T22:57:29.472Z,6.5
2023-04-10T22:58:36.573Z,6.5
2023-04-10T22:59:43.646Z,6.5
2023-04-10T23:00:50.712Z,6.5
2023-04-10T23:01:57.520Z,6.5
2023-04-10T23:03:04.694Z,6.5
2023-04-10T23:04:11.617Z,6.6
2023-04-10T23:05:18.680Z,6.6
2023-04-10T23:06:25.833Z,6.6
2023-04-10T23:07:32.306Z,6.6
2023-04-10T23:08:39.482Z,6.6
2023-04-10T23:10:53.673Z,6.6
2023-04-10T23:12:00.791Z,6.7
2023-04-10T23:13:07.412Z,6.7
2023-04-10T23:14:14.571Z,6.7
2023-04-10T23:15:21.593Z,6.7
2023-04-10T23:16:28.852Z,6.7
2023-04-10T23:17:35.825Z,6.8
2023-04-10T23:18:42.332Z,6.8
2023-04-10T23:19:49.532Z,6.8
2023-04-10T23:20:56.637Z,6.8
2023-04-10T23:22:03.668Z,6.8
2023-04-10T23:23:10.814Z,6.9
2023-04-10T23:24:17.358Z,6.8
2023-04-10T23:25:24.474Z,6.9
2023-04-10T23:26:31.584Z,6.9
2023-04-10T23:27:38.707Z,6.9
2023-04-10T23:28:45.808Z,6.9
2023-04-10T23:29:52.412Z,6.9
2023-04-10T23:30:59.606Z,6.9
2023-04-10T23:32:06.634Z,6.9
2023-04-10T23:33:13.724Z,6.9
2023-04-10T23:34:20.867Z,6.9
2023-04-10T23:35:27.526Z,6.8
2023-04-10T23:36:34.535Z,6.8
2023-04-10T23:37:41.588Z,6.7
2023-04-10T23:38:48.699Z,6.7
2023-04-10T23:41:02.460Z,6.7
2023-04-10T23:42:09.490Z,6.7
2023-04-10T23:43:16.610Z,6.7
2023-04-10T23:44:23.702Z,6.6
2023-04-10T23:45:30.284Z,6.6
2023-04-10T23:46:37.503Z,6.6
2023-04-10T23:47:44.549Z,6.6
2023-04-10T23:48:51.801Z,6.6
2023-04-10T23:49:58.738Z,6.6
2023-04-10T23:51:05.428Z,6.5
2023-04-10T23:52:12.393Z,6.5
2023-04-10T23:53:19.645Z,6.5
2023-04-10T23:54:26.619Z,6.4
2023-04-10T23:55:33.715Z,6.4
2023-04-10T23:56:40.325Z,6.4
2023-04-10T23:57:47.438Z,6.4
2023-04-10T23:58:54.634Z,6.4
